Tiempo atmosférico en la estación meteorológica de Navasfrías, Salamanca (880 m.)



Fecha
DESCASC
Temp. máxima en grados centígrados (hora)
DESCASC
Temp. mínima en grados centígrados (hora)
DESCASC
Temp. media en grados centígrados
DESCASC
Racha de viento máxima en m/sg (hora)
DESCASC
Velocidad máxima media en intervalos de 10 minutos(hora)
DESCASC
Precipitaciones diarias en mm
DESCASC
Precipitaciones de 00:00 a 06:00 en mm
DESCASC
Precipitaciones de 06:00 a 12:00 en mm
DESCASC
Precipitaciones de 12:00 a 18:00 en mm
DESCASC
Precipitaciones de 18:00 a 24:00 en mm
DESCASC
25-04-2019 10.1 (16:00) 4.1 (08:00) 7.1 11.94 (17:10) 5.28 (14:00) 4.6 1.6 1.2 1.8 0
24-04-2019 10.2 (13:40) 2.6 (05:40) 6.4 16.67 (15:20) 8.61 (15:10) 43.4 10 20 7.4 6
23-04-2019 10 (00:00) 2.6 (23:50) 6.3 11.11 (17:30) 6.39 (01:20) 10.4 7.4 1.8 0.8 0.4
22-04-2019 16.3 (15:30) 1.4 (00:00) 8.8 10.28 (23:40) 5.28 (23:59) 0 0 0 0 0
21-04-2019 16.1 (16:00) 2.2 (00:00) 9.2 10 (17:40) 3.89 (12:00) 0 0 0 0 0
20-04-2019 20.7 (17:10) 4.7 (00:00) 12.7 10.56 (17:40) 4.17 (13:40) 0 0 0 0 0
19-04-2019 13.3 (18:40) 6.4 (00:00) 9.9 7.78 (13:30) 4.17 (13:00) 3.6 2 0 1.6 0
18-04-2019 12.4 (13:30) 6.8 (00:00) 9.6 10.83 (00:40) 5.28 (00:40) 5.6 2.2 2 0.6 0.8
17-04-2019 14.4 (00:10) 7.6 (00:00) 11 17.5 (07:10) 10 (05:20) 18.4 0 0 10.6 7.8
16-04-2019 16.7 (18:50) -1.5 (-00:0) 7.6 11.11 (16:50) 5.56 (17:40) 0 0 0 0 0
15-04-2019 15.8 (13:50) 3.9 (00:00) 9.9 11.11 (11:10) 5.83 (12:00) 2.2 0 0 1.6 0.6
14-04-2019 18.5 (17:10) 4.9 (00:00) 11.7 6.67 (15:50) 3.33 (15:50) 0 0 0 0 0
13-04-2019 18.2 (16:20) 1.3 (00:00) 9.8 7.22 (16:20) 3.89 (15:40) 0 0 0 0 0
12-04-2019 16.7 (17:40) -2.2 (-00:0) 7.3 5.83 (16:50) 2.5 (16:20) 0 0 0 0 0
11-04-2019 13.7 (18:40) -0.8 (-00:0) 6.4 7.78 (15:40) 3.61 (15:10) 0 0 0 0 0
10-04-2019 12.5 (16:20) 4.4 (00:00) 8.5 11.11 (13:20) 5.56 (15:10) 0 0 0 0 0
09-04-2019 11.5 (16:40) 2.1 (00:00) 6.8 10.28 (15:20) 5.83 (15:20) 4 0.6 3.2 0.2 0
08-04-2019 11.8 (14:50) 2.9 (00:00) 7.4 12.22 (02:50) 5.83 (02:00) 6 5 0 1 0
07-04-2019 8.7 (16:30) 2.6 (00:00) 5.6 10.83 (23:50) 5.83 (16:50) 2.2 0.4 0.4 0.4 1
06-04-2019 7.1 (15:40) -0.5 (-00:0) 3.3 11.67 (14:00) 6.11 (14:00) 4 0 1.6 2.4 0
05-04-2019 7.4 (15:30) -0.2 (00:00) 3.6 10 (03:30) 5.56 (03:20) 9 7.2 0.2 0.6 1
04-04-2019 11.1 (15:20) -4.9 (-00:0) 3.1 8.61 (23:30) 5.28 (23:59) 2.8 0 0 0 2.8
03-04-2019 10.3 (16:50) -1.4 (04:40) 4.5 12.78 (16:10) 6.11 (15:20) 0 0 0 0 0
02-04-2019 16.8 (17:10) 0.9 (00:00) 8.8 7.22 (15:50) 4.72 (17:50) 0 0 0 0 0
01-04-2019 14.6 (16:30) 3.2 (00:00) 8.9 8.06 (02:30) 4.44 (16:00) 0 0 0 0 0
31-03-2019 15.8 (12:50) 0.1 (00:00) 8 6.94 (17:00) 3.06 (14:20) 2.6 0 0 2.6 0
30-03-2019 17.7 (16:50) -0.9 (-00:0) 8.4 6.39 (17:10) 3.33 (13:10) 0 0 0 0 0
29-03-2019 15.6 (15:50) -1.7 (-00:0) 7 10.83 (11:10) 5.56 (13:30) 0 0 0 0 0
28-03-2019 17.7 (16:50) -3.8 (-00:0) 7 6.94 (11:40) 2.78 (11:40) 0 0 0 0 0
27-03-2019 16.9 (17:20) -4.8 (-00:0) 6 7.78 (17:30) 3.33 (17:00) 0 0 0 0 0

Gráficas

Temp. máximas Temp. mínimas Temp. medias Precipitaciones Rachas de viento máximas Velocidades máximas media en intervalos de 10 minutos

Datos horarios

Fecha y hora oficial Temperatura (ºC) Velocidad del viento (km/h) Dirección del viento Racha (km/h) Dirección de racha Precipitación (mm) Presión (hPa) Tendencia (hPa) Humedad (%)
2019-04-25 23:00:00 5.5 2 Sudoeste 9 Sur 0 -- -- 90
2019-04-25 22:00:00 6.6 2 Sudoeste 14 Sudoeste 0 -- -- 83
2019-04-25 21:00:00 7.3 4 Sudoeste 17 Sudoeste 0 -- -- 76
2019-04-25 20:00:00 8.3 8 Oeste 33 Oeste 0 -- -- 71
2019-04-25 19:00:00 8.9 11 Oeste 35 Oeste 0 -- -- 72
2019-04-25 18:00:00 9.3 14 Sudoeste 43 Oeste 0.8 -- -- 67
2019-04-25 17:00:00 9.2 11 Sudoeste 36 Sudoeste 0.2 -- -- 78
2019-04-25 16:00:00 10.1 15 Sudoeste 42 Sudoeste 0 -- -- 61
2019-04-25 15:00:00 8.7 13 Sudoeste 35 Oeste 0.4 -- -- 78
2019-04-25 14:00:00 8.3 19 Sur 31 Sudoeste 0 -- -- 80
2019-04-25 13:00:00 8.2 12 Oeste 30 Oeste 0.4 -- -- 81
2019-04-25 12:00:00 7.4 13 Sudoeste 39 Sudoeste 0 -- -- 79
2019-04-25 11:00:00 6.7 13 Sudoeste 37 Sur 0 -- -- 86
2019-04-25 10:00:00 4.4 6 Oeste 23 Sudoeste 1.2 -- -- 95
2019-04-25 09:00:00 4.3 13 Sudoeste 27 Sudoeste 0 -- -- 96
2019-04-25 08:00:00 4.1 13 Sudoeste 31 Sudoeste 0 -- -- 96
2019-04-25 07:00:00 4.5 10 Sudoeste 27 Sudoeste 0 -- -- 96
2019-04-25 06:00:00 4.5 8 Sudoeste 33 Sudoeste 0 -- -- 95
2019-04-25 05:00:00 4.7 7 Sudoeste 27 Oeste 1.4 -- -- 94
2019-04-25 04:00:00 5.1 14 Sudoeste 32 Sudoeste 0 -- -- 97
2019-04-25 03:00:00 5 10 Sudoeste 31 Oeste 0.2 -- -- 93
2019-04-25 02:00:00 5.6 15 Sudoeste 36 Sudoeste 0 -- -- 95
2019-04-25 01:00:00 5.9 14 Sudoeste 37 Sudoeste 0 -- -- 91
2019-04-25 00:00:00 6.1 13 Sudoeste 40 Sudoeste 0 -- -- 92
2019-04-24 23:00:00 6.5 12 Sudoeste 32 Sudoeste 0.4 -- -- 97
2019-04-24 22:00:00 7.4 11 Sudoeste 31 Sudoeste 1 -- -- 95
2019-04-24 21:00:00 8.2 24 Sudoeste 49 Sudoeste 4.2 -- -- 96
2019-04-24 20:00:00 8.1 21 Sudoeste 45 Sudoeste 0.4 -- -- 97
2019-04-24 19:00:00 8 21 Sudoeste 40 Sur 0 -- -- 94
2019-04-24 18:00:00 8.2 12 Sudoeste 39 Sudoeste 1.2 -- -- 92
2019-04-24 17:00:00 8.6 14 Sudoeste 38 Sur 0 -- -- 95
2019-04-24 16:00:00 8.9 19 Sur 60 Sur 0.6 -- -- 94
2019-04-24 15:00:00 9 26 Sudoeste 49 Sudoeste 2.4 -- -- 98
2019-04-24 14:00:00 9.4 25 Sur 45 Sudoeste 0.4 -- -- 94
2019-04-24 13:00:00 9.4 20 Sudoeste 45 Sudoeste 2.8 -- -- 96
2019-04-24 12:00:00 8.3 25 Sur 48 Sur 0.6 -- -- 100
2019-04-24 11:00:00 7.7 16 Sudoeste 30 Sudoeste 0.8 -- -- 100
2019-04-24 10:00:00 6.9 12 Sur 27 Sur 2.2 -- -- 99
2019-04-24 09:00:00 6 17 Sur 35 Sur 5.6 -- -- 99
2019-04-24 08:00:00 4.8 18 Sur 45 Sur 6.4 -- -- 98
2019-04-24 07:00:00 4.2 24 Sur 49 Sur 4.4 -- -- 99
2019-04-24 06:00:00 2.9 22 Sur 46 Sudoeste 5 -- -- 97
2019-04-24 05:00:00 3.1 15 Sur 43 Sur 2.2 -- -- 98
2019-04-24 04:00:00 3.2 15 Sur 37 Sur 1.6 -- -- 96
2019-04-24 03:00:00 3.3 17 Sudoeste 33 Sur 1 -- -- 97
2019-04-24 02:00:00 3.5 11 Sudoeste 29 Sur 0.2 -- -- 95
2019-04-24 01:00:00 3.3 5 Sur 19 Sur 0 -- -- 95
2019-04-24 00:00:00 2.8 12 Sur 22 Sudoeste 0 -- -- 95
2019-04-23 23:00:00 2.7 4 Sudoeste 12 Sudoeste 0 -- -- 93
2019-04-23 22:00:00 3.4 5 Sur 10 Sur 0 -- -- 92
2019-04-23 21:00:00 3.8 3 Sudoeste 24 Oeste 0.4 -- -- 90
2019-04-23 20:00:00 6.2 4 Sudoeste 23 Noroeste 0 -- -- 79
2019-04-23 19:00:00 6.6 15 Noroeste 28 Oeste 0 -- -- 68
2019-04-23 18:00:00 7 12 Oeste 40 Oeste 0.4 -- -- 76
2019-04-23 17:00:00 7.4 9 Sudoeste 30 Noroeste 0 -- -- 77
2019-04-23 16:00:00 8.1 18 Oeste 36 Oeste 0 -- -- 70
2019-04-23 15:00:00 7.6 15 Oeste 36 Oeste 0 -- -- 78
2019-04-23 14:00:00 6.5 12 Noroeste 24 Oeste 0.2 -- -- 86
2019-04-23 13:00:00 6.8 9 Sudoeste 30 Sudoeste 0.2 -- -- 91
2019-04-23 12:00:00 5.5 9 Sudoeste 21 Sudoeste 0.8 -- -- 94
2019-04-23 11:00:00 4.5 5 Sur 20 Sudoeste 0.6 -- -- 93
2019-04-23 10:00:00 4 7 Sudoeste 16 Sudoeste 0.4 -- -- 94
2019-04-23 09:00:00 3.9 8 Sur 22 Sudoeste 0 -- -- 93
2019-04-23 08:00:00 3.4 4 Sudoeste 24 Sudoeste 0 -- -- 91
2019-04-23 07:00:00 3.4 6 Sudoeste 23 Sudoeste 0 -- -- 91
2019-04-23 06:00:00 4.1 8 Sudoeste 21 Sudoeste 0 -- -- 90
2019-04-23 05:00:00 5 5 Sudoeste 25 Sudoeste 0 -- -- 93
2019-04-23 04:00:00 5.2 7 Sudoeste 19 Sur 0.8 -- -- 92
2019-04-23 03:00:00 5.5 4 Sudoeste 31 Oeste 2.2 -- -- 94
2019-04-23 02:00:00 6.9 10 Sudoeste 40 Sudeste 3.6 -- -- 94
2019-04-23 01:00:00 8.7 17 Sudoeste 38 Sudoeste 0.8 -- -- 90
2019-04-23 00:00:00 10 19 Sur 37 Sudoeste 0 -- -- 84
2019-04-22 23:00:00 10.6 10 Sur 27 Sudoeste 0 -- -- 78
2019-04-22 22:00:00 11.4 14 Sudoeste 28 Sudoeste 0 -- -- 65
2019-04-22 21:00:00 12.2 13 Sudoeste 31 Sudoeste 0 -- -- 65
2019-04-22 20:00:00 13.1 13 Sudoeste 33 Sudoeste 0 -- -- 67
2019-04-22 19:00:00 13.8 10 Sudoeste 27 Sur 0 -- -- 68
2019-04-22 18:00:00 15 12 Sudoeste 28 Sudoeste 0 -- -- 58
2019-04-22 17:00:00 15.5 11 Sudoeste 29 Sur 0 -- -- 55
2019-04-22 16:00:00 16 17 Sur 27 Sur 0 -- -- 52
2019-04-22 15:00:00 15.9 10 Sur 24 Sudoeste 0 -- -- 59
2019-04-22 14:00:00 15 12 Sudoeste 25 Sudoeste 0 -- -- 61
2019-04-22 13:00:00 14.6 10 Sudoeste 20 Sudoeste 0 -- -- 63
2019-04-22 12:00:00 13.8 6 Sudoeste 18 Sudoeste 0 -- -- 67
2019-04-22 11:00:00 12.4 3 Sudoeste 11 Sudoeste 0 -- -- 69
2019-04-22 10:00:00 8 0 Calma 2 Norte 0 -- -- 93
2019-04-22 09:00:00 3 0 Calma 3 Sur 0 -- -- 100
2019-04-22 08:00:00 1.5 3 Sur 4 Sur 0 -- -- 97
2019-04-22 07:00:00 1.7 3 Sur 4 Sur 0 -- -- 96
2019-04-22 06:00:00 2.3 2 Sudoeste 5 Sur 0 -- -- 95
2019-04-22 05:00:00 3.2 2 Sur 5 Sur 0 -- -- 94
2019-04-22 04:00:00 5.1 3 Sur 5 Sur 0 -- -- 90
2019-04-22 03:00:00 8.1 2 Sur 4 Sudoeste 0 -- -- 89
2019-04-22 02:00:00 8.3 0 Calma 3 Sur 0 -- -- 88
2019-04-22 01:00:00 8.2 2 Sur 5 Sur 0 -- -- 88
2019-04-22 00:00:00 8.2 3 Sur 7 Sur 0 -- -- 86
2019-04-21 23:00:00 9.8 0 Calma 6 Noroeste 0 -- -- 82
2019-04-21 22:00:00 11.5 3 Norte 15 Norte 0 -- -- 72
2019-04-21 21:00:00 13.3 0 Calma 8 Nordeste 0 -- -- 63
2019-04-21 20:00:00 14.4 4 Nordeste 24 Norte 0 -- -- 50
2019-04-21 19:00:00 16 6 Nordeste 28 Norte 0 -- -- 48
2019-04-21 18:00:00 15.3 9 Nordeste 36 Norte 0 -- -- 47
2019-04-21 17:00:00 15.2 10 Norte 32 Norte 0 -- -- 48
2019-04-21 16:00:00 16.1 9 Nordeste 35 Norte 0 -- -- 48
2019-04-21 15:00:00 14.5 8 Nordeste 31 Este 0 -- -- 51
2019-04-21 14:00:00 13.5 11 Norte 32 Norte 0 -- -- 55
2019-04-21 13:00:00 13 10 Nordeste 31 Noroeste 0 -- -- 57
2019-04-21 12:00:00 11.5 14 Norte 30 Nordeste 0 -- -- 66
2019-04-21 11:00:00 10.7 10 Norte 23 Norte 0 -- -- 75
2019-04-21 10:00:00 8 8 Norte 19 Norte 0 -- -- 89
2019-04-21 09:00:00 3.9 0 Calma 4 Sur 0 -- -- 100
2019-04-21 08:00:00 2.2 0 Calma 3 Sur 0 -- -- 95
2019-04-21 07:00:00 3.6 2 Sudeste 5 Sur 0 -- -- 96
2019-04-21 06:00:00 3.9 0 Calma 4 Sur 0 -- -- 93
2019-04-21 05:00:00 5.6 0 Calma 7 Sudoeste 0 -- -- 89
2019-04-21 04:00:00 7.3 0 Calma 5 Sudoeste 0 -- -- 87
2019-04-21 03:00:00 9 3 Sudoeste 18 Sudeste 0 -- -- 79
2019-04-21 02:00:00 7.2 0 Calma 6 Sudeste 0 -- -- 90
2019-04-21 01:00:00 7.4 2 Sur 7 Sudoeste 0 -- -- 84
2019-04-21 00:00:00 8.9 3 Sudoeste 8 Sudoeste 0 -- -- 79
2019-04-20 23:00:00 11.4 3 Sur 10 Sudeste 0 -- -- 73
2019-04-20 22:00:00 15.5 3 Este 11 Nordeste 0 -- -- 53
2019-04-20 21:00:00 17.4 4 Nordeste 22 Norte 0 -- -- 46
2019-04-20 20:00:00 19.1 13 Norte 38 Norte 0 -- -- 40
2019-04-20 19:00:00 19.9 10 Norte 31 Norte 0 -- -- 39
2019-04-20 18:00:00 20.3 11 Norte 38 Nordeste 0 -- -- 39
2019-04-20 17:00:00 20.6 13 Norte 31 Norte 0 -- -- 35
2019-04-20 16:00:00 20 9 Nordeste 31 Norte 0 -- -- 41
2019-04-20 15:00:00 18.5 13 Norte 32 Norte 0 -- -- 49
2019-04-20 14:00:00 17.3 10 Norte 33 Noroeste 0 -- -- 54
2019-04-20 13:00:00 15.1 12 Norte 27 Norte 0 -- -- 59
2019-04-20 12:00:00 13.5 5 Norte 20 Norte 0 -- -- 64
2019-04-20 11:00:00 12.2 8 Norte 21 Norte 0 -- -- 67
2019-04-20 10:00:00 10.2 5 Nordeste 22 Norte 0 -- -- 75
2019-04-20 09:00:00 7 3 Norte 9 Norte 0 -- -- 93
2019-04-20 08:00:00 6.2 0 Calma 5 Noroeste 0 -- -- 99
2019-04-20 07:00:00 5.6 0 Calma 6 Sur 0 -- -- 100
2019-04-20 06:00:00 4.9 0 Calma 4 Norte 0 -- -- 98
2019-04-20 05:00:00 5.4 0 Calma 4 Sudeste 0 -- -- 98
2019-04-20 04:00:00 5.3 0 Calma 5 Sur 0 -- -- 96
2019-04-20 03:00:00 7.1 0 Calma 3 Nordeste 0 -- -- 92
2019-04-20 02:00:00 9.1 2 Este 12 Sudeste 0 -- -- 90
2019-04-20 01:00:00 10 3 Sudeste 6 Nordeste 0 -- -- 87
2019-04-20 00:00:00 10.1 0 Calma 9 Norte 0 -- -- 85
2019-04-19 23:00:00 10.5 3 Norte 11 Nordeste 0 -- -- 85
2019-04-19 22:00:00 11.2 2 Nordeste 11 Noroeste 0 -- -- 81
2019-04-19 21:00:00 12 0 Calma 13 Sudeste 0 -- -- 79
2019-04-19 20:00:00 13 2 Nordeste 9 Sudeste 0 -- -- 71
2019-04-19 19:00:00 13.3 3 Este 12 Este 0 -- -- 73
2019-04-19 18:00:00 12.6 4 Nordeste 13 Noroeste 0 -- -- 74
2019-04-19 17:00:00 11.2 3 Nordeste 12 Sudeste 0.4 -- -- 90
2019-04-19 16:00:00 10.5 3 Nordeste 17 Norte 1.2 -- -- 89
2019-04-19 15:00:00 13.2 8 Sudeste 21 Sudeste 0 -- -- 69
2019-04-19 14:00:00 11.8 11 Sudeste 28 Sudeste 0 -- -- 76
2019-04-19 13:00:00 10.2 15 Sudeste 24 Sudeste 0 -- -- 85
2019-04-19 12:00:00 8.4 7 Este 20 Sudeste 0 -- -- 96
2019-04-19 11:00:00 7.9 5 Sudeste 15 Sudeste 0 -- -- 94
2019-04-19 10:00:00 7.8 2 Sur 9 Sudeste 0 -- -- 93
2019-04-19 09:00:00 7.1 0 Calma 4 Sudeste 0 -- -- 98
2019-04-19 08:00:00 6.5 0 Calma 3 Sudeste 0 -- -- 99
2019-04-19 07:00:00 6.5 2 Sur 3 Sur 0 -- -- 98
2019-04-19 06:00:00 6.9 0 Calma 3 Sur 0 -- -- 98
2019-04-19 05:00:00 7.1 0 Calma 3 Sur 0.4 -- -- 98
2019-04-19 04:00:00 7.3 0 Calma 9 Noroeste 1 -- -- 98
2019-04-19 03:00:00 7.3 0 Calma 10 Norte 0 -- -- 97
2019-04-19 02:00:00 7.4 3 Noroeste 6 Noroeste 0 -- -- 96
2019-04-19 01:00:00 7.5 2 Sudeste 4 Norte 0.6 -- -- 98
2019-04-19 00:00:00 7.2 0 Calma 5 Sur 0.8 -- -- 96
2019-04-18 23:00:00 7.7 0 Calma 2 Oeste 0 -- -- 94
2019-04-18 22:00:00 8.4 0 Calma 4 Sudeste 0 -- -- 92
2019-04-18 21:00:00 9.9 0 Calma 4 Sudeste 0 -- -- 86
2019-04-18 20:00:00 10.7 3 Este 6 Oeste 0 -- -- 78
2019-04-18 19:00:00 10.9 2 Norte 14 Norte 0 -- -- 81
2019-04-18 18:00:00 9.8 0 Calma 11 Norte 0.4 -- -- 83
2019-04-18 17:00:00 9.5 5 Sudeste 10 Este 0.2 -- -- 87
2019-04-18 16:00:00 10.9 6 Norte 15 Oeste 0 -- -- 72
2019-04-18 15:00:00 10.7 12 Noroeste 18 Oeste 0 -- -- 76
2019-04-18 14:00:00 11.9 5 Sudoeste 19 Sudeste 0 -- -- 71
2019-04-18 13:00:00 11.4 10 Sudeste 21 Sur 0 -- -- 75
2019-04-18 12:00:00 11 8 Sudeste 18 Sudeste 0 -- -- 82
2019-04-18 11:00:00 9.7 7 Sur 14 Sur 0 -- -- 86
2019-04-18 10:00:00 8.6 4 Este 11 Este 0 -- -- 92
2019-04-18 09:00:00 7.3 2 Sudeste 10 Sudeste 1 -- -- 98
2019-04-18 08:00:00 6.8 0 Calma 3 Sudoeste 1 -- -- 98
2019-04-18 07:00:00 6.8 2 Sur 11 Sur 0 -- -- 96
2019-04-18 06:00:00 6.8 6 Sur 21 Sudoeste 0 -- -- 96
2019-04-18 05:00:00 7.3 11 Sur 18 Sur 0.4 -- -- 97
2019-04-18 04:00:00 7.4 6 Sur 23 Sur 0.6 -- -- 97
2019-04-18 03:00:00 7.3 8 Sur 25 Sur 0 -- -- 97
2019-04-18 02:00:00 7.6 13 Sur 28 Sur 0.4 -- -- 97
2019-04-18 01:00:00 7.6 11 Sur 39 Sudoeste 0.8 -- -- 98
2019-04-18 00:00:00 7.7 15 Sur 25 Sur 0.8 -- -- 98
2019-04-17 23:00:00 7.6 16 Sur 35 Sudoeste 2 -- -- 97
2019-04-17 22:00:00 7.6 17 Sur 42 Sudoeste 0.4 -- -- 99
2019-04-17 21:00:00 7.7 22 Sudoeste 35 Sudoeste 1.8 -- -- 96
2019-04-17 20:00:00 8.5 10 Sudoeste 27 Sur 1.4 -- -- 94
2019-04-17 19:00:00 8.9 9 Sudoeste 24 Sudoeste 1.4 -- -- 96
2019-04-17 18:00:00 8.7 21 Sudoeste 36 Sur 8.2 -- -- 94
2019-04-17 17:00:00 10.2 12 Sudoeste 36 Sur 2.4 -- -- 94
2019-04-17 16:00:00 12.7 14 Sur 42 Sudeste 0 -- -- 68
2019-04-17 15:00:00 13 21 Sur 50 Sudeste 0 -- -- 68
2019-04-17 14:00:00 12.8 20 Sur 42 Sur 0 -- -- 73
2019-04-17 13:00:00 11.6 20 Sur 44 Sur 0 -- -- 73
2019-04-17 12:00:00 10.6 22 Sur 48 Sur 0 -- -- 74
2019-04-17 11:00:00 10.6 26 Sur 48 Sudoeste 0 -- -- 79
2019-04-17 10:00:00 10.3 29 Sur 51 Sudeste 0 -- -- 80
2019-04-17 09:00:00 10.4 28 Sur 56 Sur 0 -- -- 79
2019-04-17 08:00:00 9.8 25 Sur 63 Sur 0 -- -- 79
2019-04-17 07:00:00 9.6 32 Sur 58 Sudoeste 0 -- -- 76
2019-04-17 06:00:00 9.7 33 Sur 60 Sudoeste 0 -- -- 75
2019-04-17 05:00:00 10.4 28 Sur 51 Sur 0 -- -- 73
2019-04-17 04:00:00 11.3 27 Sur 54 Sur 0 -- -- 63
2019-04-17 03:00:00 12 27 Sur 49 Sur 0 -- -- 49
2019-04-17 02:00:00 12.6 17 Sur 31 Sur 0 -- -- 57
2019-04-17 01:00:00 13.5 17 Sur 39 Sur 0 -- -- 53
2019-04-17 00:00:00 14.3 15 Sur 34 Sur 0 -- -- 49
2019-04-16 23:00:00 14.2 9 Sudeste 23 Sudeste 0 -- -- 49
2019-04-16 22:00:00 13.8 5 Sudeste 15 Sudeste 0 -- -- 51
2019-04-16 21:00:00 14.8 8 Sudeste 23 Sur 0 -- -- 47
2019-04-16 20:00:00 15.5 8 Sur 30 Sur 0 -- -- 44
2019-04-16 19:00:00 16.5 13 Sur 29 Sudeste 0 -- -- 38
2019-04-16 18:00:00 16.4 14 Sudeste 35 Sudoeste 0 -- -- 42
2019-04-16 17:00:00 16.2 13 Sudeste 40 Sur 0 -- -- 42
2019-04-16 16:00:00 15.4 15 Sudeste 33 Este 0 -- -- 49
2019-04-16 15:00:00 14.8 17 Sudeste 33 Sur 0 -- -- 53
2019-04-16 14:00:00 13.8 17 Sur 28 Sur 0 -- -- 54
2019-04-16 13:00:00 13 14 Sudeste 27 Sur 0 -- -- 55
2019-04-16 12:00:00 12 16 Sur 27 Sur 0 -- -- 59
2019-04-16 11:00:00 10.7 15 Sur 23 Sur 0 -- -- 69
2019-04-16 10:00:00 5.4 0 Calma 4 Sudeste 0 -- -- 100
2019-04-16 09:00:00 -0.1 0 Calma 3 Sudoeste 0 -- -- 100
2019-04-16 08:00:00 -1.5 0 Calma 4 Sur 0 -- -- 99
2019-04-16 07:00:00 -1.3 2 Sur 4 Sudoeste 0 -- -- 99
2019-04-16 06:00:00 -1 2 Sur 4 Sudoeste 0 -- -- 98
2019-04-16 05:00:00 -0.4 2 Sudoeste 5 Sur 0 -- -- 97
2019-04-16 04:00:00 0.1 3 Sudoeste 4 Sur 0 -- -- 97
2019-04-16 03:00:00 0.9 2 Sur 5 Sudoeste 0 -- -- 97
2019-04-16 02:00:00 1.3 3 Sur 5 Sur 0 -- -- 96
2019-04-16 01:00:00 2.5 0 Calma 4 Sur 0 -- -- 94
2019-04-16 00:00:00 3.9 0 Calma 5 Sur 0 -- -- 90
2019-04-15 23:00:00 5.8 2 Sur 8 Noroeste 0 -- -- 86
2019-04-15 22:00:00 9.1 5 Noroeste 12 Noroeste 0 -- -- 77
2019-04-15 21:00:00 11.2 5 Oeste 24 Oeste 0 -- -- 64
2019-04-15 20:00:00 13.6 9 Oeste 27 Oeste 0 -- -- 54
2019-04-15 19:00:00 13.9 8 Oeste 23 Sudoeste 0.6 -- -- 68
2019-04-15 18:00:00 13.6 9 Sudoeste 22 Sudoeste 0 -- -- 79
2019-04-15 17:00:00 13.2 8 Sudoeste 26 Oeste 0 -- -- 84
2019-04-15 16:00:00 10.6 7 Sudoeste 18 Sur 1.2 -- -- 90
2019-04-15 15:00:00 9.4 10 Sudoeste 39 Oeste 0.4 -- -- 88
2019-04-15 14:00:00 15.4 19 Sudoeste 36 Sur 0 -- -- 60
2019-04-15 13:00:00 15.3 19 Sur 35 Sudoeste 0 -- -- 57
2019-04-15 12:00:00 13.9 21 Sudoeste 40 Sudoeste 0 -- -- 62
2019-04-15 11:00:00 13.4 16 Sudoeste 36 Sudoeste 0 -- -- 74
2019-04-15 10:00:00 12.7 14 Sudoeste 27 Sudoeste 0 -- -- 85
2019-04-15 09:00:00 12.5 16 Sur 32 Sur 0 -- -- 91
2019-04-15 08:00:00 13.2 13 Sur 26 Sur 0 -- -- 87
2019-04-15 07:00:00 13.8 15 Sur 25 Sur 0 -- -- 84
2019-04-15 06:00:00 14.1 13 Sur 24 Sur 0 -- -- 83
2019-04-15 05:00:00 14.2 13 Sur 24 Sudoeste 0 -- -- 85
2019-04-15 04:00:00 13.3 7 Sur 14 Sur 0 -- -- 91
2019-04-15 03:00:00 10.4 0 Calma 4 Norte 0 -- -- 95
2019-04-15 02:00:00 10 0 Calma 3 Oeste 0 -- -- 94
2019-04-15 01:00:00 9.7 2 Sudoeste 5 Sudoeste 0 -- -- 93
2019-04-15 00:00:00 9.4 3 Sudoeste 8 Sudoeste 0 -- -- 90
2019-04-14 23:00:00 11.3 6 Sur 8 Sudoeste 0 -- -- 87
2019-04-14 22:00:00 13.3 0 Calma 19 Sudoeste 0 -- -- 79
2019-04-14 21:00:00 15.6 9 Sudoeste 20 Sudoeste 0 -- -- 74
2019-04-14 20:00:00 16.9 8 Sudoeste 18 Sudoeste 0 -- -- 71
2019-04-14 19:00:00 18 8 Sudoeste 19 Sudoeste 0 -- -- 64
2019-04-14 18:00:00 18.1 8 Sudoeste 19 Sudoeste 0 -- -- 64
2019-04-14 17:00:00 18 5 Sudoeste 19 Sudoeste 0 -- -- 64
2019-04-14 16:00:00 17.8 6 Sudoeste 24 Sur 0 -- -- 65
2019-04-14 15:00:00 17.6 10 Sudoeste 22 Sur 0 -- -- 67
2019-04-14 14:00:00 16.4 6 Sudoeste 15 Sudoeste 0 -- -- 66
2019-04-14 13:00:00 15.4 4 Sudeste 8 Sur 0 -- -- 75
2019-04-14 12:00:00 14.8 2 Norte 8 Norte 0 -- -- 78
2019-04-14 11:00:00 13.4 3 Norte 8 Norte 0 -- -- 85
2019-04-14 10:00:00 11.2 2 Norte 6 Norte 0 -- -- 99
2019-04-14 09:00:00 6.5 0 Calma 4 Sur 0 -- -- 100
2019-04-14 08:00:00 5 2 Sur 3 Sudoeste 0 -- -- 97
2019-04-14 07:00:00 5.7 0 Calma 4 Sudoeste 0 -- -- 96
2019-04-14 06:00:00 7 0 Calma 4 Sudeste 0 -- -- 92
2019-04-14 05:00:00 8.8 0 Calma 4 Sur 0 -- -- 93
2019-04-14 04:00:00 8.7 0 Calma 3 Sur 0 -- -- 94
2019-04-14 03:00:00 8.2 0 Calma 4 Sudoeste 0 -- -- 91
2019-04-14 02:00:00 9.2 2 Sur 4 Noroeste 0 -- -- 88
2019-04-14 01:00:00 12.1 0 Calma 9 Oeste 0 -- -- 85
2019-04-14 00:00:00 12.9 2 Oeste 15 Sudoeste 0 -- -- 81
2019-04-13 23:00:00 13.5 5 Sudoeste 17 Sudoeste 0 -- -- 77
2019-04-13 22:00:00 13.3 3 Sudoeste 14 Sur 0 -- -- 73
2019-04-13 21:00:00 14.3 9 Sudoeste 18 Sudoeste 0 -- -- 60
2019-04-13 20:00:00 14.9 10 Sudoeste 23 Sudoeste 0 -- -- 57
2019-04-13 19:00:00 15.8 12 Sur 24 Sudoeste 0 -- -- 49
2019-04-13 18:00:00 16.1 11 Sudoeste 22 Sudoeste 0 -- -- 46
2019-04-13 17:00:00 17.2 11 Sudoeste 26 Sudoeste 0 -- -- 46
2019-04-13 16:00:00 18.1 10 Sudoeste 23 Sur 0 -- -- 44
2019-04-13 15:00:00 17.5 9 Sudoeste 19 Sudoeste 0 -- -- 47
2019-04-13 14:00:00 16.7 8 Sudoeste 21 Sudoeste 0 -- -- 44
2019-04-13 13:00:00 16.1 8 Sudoeste 17 Sudoeste 0 -- -- 45
2019-04-13 12:00:00 15.2 5 Sudoeste 14 Sudoeste 0 -- -- 50
2019-04-13 11:00:00 12.3 3 Oeste 5 Oeste 0 -- -- 71
2019-04-13 10:00:00 8.7 0 Calma 2 Norte 0 -- -- 90
2019-04-13 09:00:00 5.8 0 Calma 3 Sur 0 -- -- 97
2019-04-13 08:00:00 4.5 0 Calma 2 Sur 0 -- -- 96
2019-04-13 07:00:00 3.8 0 Calma 3 Sur 0 -- -- 97
2019-04-13 06:00:00 3.3 2 Sur 3 Sur 0 -- -- 96
2019-04-13 05:00:00 2.7 0 Calma 3 Sur 0 -- -- 96
2019-04-13 04:00:00 1.7 2 Sur 3 Sudoeste 0 -- -- 95
2019-04-13 03:00:00 1.3 2 Sur 5 Sur 0 -- -- 91
2019-04-13 02:00:00 2 2 Sur 4 Sur 0 -- -- 87
2019-04-13 01:00:00 2 3 Sur 5 Sur 0 -- -- 83
2019-04-13 00:00:00 3.4 2 Sur 6 Sur 0 -- -- 79
2019-04-12 23:00:00 4.7 4 Sur 6 Sudoeste 0 -- -- 75
2019-04-12 22:00:00 7.5 4 Sur 6 Sur 0 -- -- 66
2019-04-12 21:00:00 13.1 0 Calma 11 Norte 0 -- -- 47
2019-04-12 20:00:00 15.9 4 Norte 18 Norte 0 -- -- 35
2019-04-12 19:00:00 16.4 5 Norte 19 Norte 0 -- -- 36
2019-04-12 18:00:00 16.7 5 Norte 17 Norte 0 -- -- 35
2019-04-12 17:00:00 16.2 5 Noroeste 21 Norte 0 -- -- 41
2019-04-12 16:00:00 15.3 5 Norte 20 Norte 0 -- -- 46
2019-04-12 15:00:00 14.6 8 Norte 18 Norte 0 -- -- 45
2019-04-12 14:00:00 13.8 6 Noroeste 17 Noroeste 0 -- -- 47
2019-04-12 13:00:00 13.4 5 Este 17 Norte 0 -- -- 42
2019-04-12 12:00:00 12.3 6 Nordeste 17 Norte 0 -- -- 52
2019-04-12 11:00:00 10.9 3 Este 8 Sudeste 0 -- -- 58
2019-04-12 10:00:00 5.3 0 Calma 2 Sur 0 -- -- 100
2019-04-12 09:00:00 -0.8 2 Sur 4 Sudoeste 0 -- -- 100
2019-04-12 08:00:00 -2.1 3 Sudoeste 4 Sudoeste 0 -- -- 98
2019-04-12 07:00:00 -1.8 2 Sur 4 Sur 0 -- -- 97
2019-04-12 06:00:00 -1.5 0 Calma 3 Sudoeste 0 -- -- 97
2019-04-12 05:00:00 -1.4 0 Calma 5 Sudoeste 0 -- -- 95
2019-04-12 04:00:00 -1.1 0 Calma 5 Sur 0 -- -- 95
2019-04-12 03:00:00 -0.8 0 Calma 3 Sur 0 -- -- 94
2019-04-12 02:00:00 -0.4 0 Calma 4 Sur 0 -- -- 90
2019-04-12 01:00:00 0.6 2 Sur 4 Sur 0 -- -- 90
2019-04-12 00:00:00 1.9 3 Sur 5 Sur 0 -- -- 85
2019-04-11 23:00:00 3.7 2 Sur 5 Sur 0 -- -- 79
2019-04-11 22:00:00 6.7 3 Sur 5 Norte 0 -- -- 70
2019-04-11 21:00:00 10.8 2 Norte 17 Norte 0 -- -- 51
2019-04-11 20:00:00 12.1 5 Norte 19 Noroeste 0 -- -- 46
2019-04-11 19:00:00 13.7 5 Nordeste 22 Norte 0 -- -- 44
2019-04-11 18:00:00 13 9 Norte 25 Norte 0 -- -- 43
2019-04-11 17:00:00 13.4 9 Norte 23 Norte 0 -- -- 46
2019-04-11 16:00:00 12.7 11 Norte 28 Norte 0 -- -- 52
2019-04-11 15:00:00 11.4 10 Norte 23 Noroeste 0 -- -- 52
2019-04-11 14:00:00 11 10 Norte 24 Norte 0 -- -- 55
2019-04-11 13:00:00 9.8 8 Norte 20 Norte 0 -- -- 64
2019-04-11 12:00:00 7.7 5 Noroeste 13 Norte 0 -- -- 83
2019-04-11 11:00:00 5.5 4 Norte 10 Noroeste 0 -- -- 97
2019-04-11 10:00:00 4.2 4 Norte 10 Norte 0 -- -- 100
2019-04-11 09:00:00 3.5 0 Calma 5 Norte 0 -- -- 100
2019-04-11 08:00:00 1.1 0 Calma 2 Sudoeste 0 -- -- 100
2019-04-11 07:00:00 -0.5 0 Calma 4 Sur 0 -- -- 99
2019-04-11 06:00:00 -0.3 2 Sur 3 Sur 0 -- -- 95
2019-04-11 05:00:00 1.5 0 Calma 3 Sudeste 0 -- -- 95
2019-04-11 04:00:00 3.7 0 Calma 6 Norte 0 -- -- 96
2019-04-11 03:00:00 4.6 2 Norte 10 Norte 0 -- -- 94
2019-04-11 02:00:00 5.3 4 Norte 14 Norte 0 -- -- 91
2019-04-11 01:00:00 6.1 4 Norte 14 Norte 0 -- -- 88
2019-04-11 00:00:00 6.5 4 Norte 11 Norte 0 -- -- 84
2019-04-10 23:00:00 7.5 3 Norte 11 Noroeste 0 -- -- 79
2019-04-10 22:00:00 8.4 6 Norte 24 Norte 0 -- -- 71
2019-04-10 21:00:00 9.8 8 Noroeste 23 Noroeste 0 -- -- 63
2019-04-10 20:00:00 11 15 Noroeste 30 Noroeste 0 -- -- 52
2019-04-10 19:00:00 12 16 Noroeste 32 Noroeste 0 -- -- 52
2019-04-10 18:00:00 11.7 14 Noroeste 36 Oeste 0 -- -- 52
2019-04-10 17:00:00 12.1 18 Noroeste 34 Norte 0 -- -- 55
2019-04-10 16:00:00 11.6 18 Noroeste 37 Oeste 0 -- -- 61
2019-04-10 15:00:00 10.7 18 Noroeste 32 Noroeste 0 -- -- 65
2019-04-10 14:00:00 10.1 18 Noroeste 40 Noroeste 0 -- -- 65
2019-04-10 13:00:00 9.4 18 Noroeste 38 Noroeste 0 -- -- 70
2019-04-10 12:00:00 8.4 17 Noroeste 35 Noroeste 0 -- -- 75
2019-04-10 11:00:00 7.1 12 Noroeste 30 Norte 0 -- -- 85
2019-04-10 10:00:00 6.1 10 Noroeste 24 Noroeste 0 -- -- 84
2019-04-10 09:00:00 5.2 9 Noroeste 19 Noroeste 0 -- -- 86
2019-04-10 08:00:00 5.1 5 Noroeste 14 Oeste 0 -- -- 83
2019-04-10 07:00:00 4.6 5 Noroeste 18 Noroeste 0 -- -- 85
2019-04-10 06:00:00 4.5 3 Norte 10 Oeste 0 -- -- 89
2019-04-10 05:00:00 4.5 3 Noroeste 13 Oeste 0 -- -- 88
2019-04-10 04:00:00 5.4 9 Noroeste 21 Noroeste 0 -- -- 83
2019-04-10 03:00:00 5.8 7 Noroeste 23 Oeste 0 -- -- 84
2019-04-10 02:00:00 5.6 5 Noroeste 12 Noroeste 0 -- -- 84
2019-04-10 01:00:00 5.4 4 Norte 15 Noroeste 0 -- -- 83
2019-04-10 00:00:00 5.6 9 Noroeste 27 Oeste 0 -- -- 81
2019-04-09 23:00:00 5.7 8 Noroeste 26 Noroeste 0 -- -- 82
2019-04-09 22:00:00 6.9 8 Oeste 22 Oeste 0 -- -- 79
2019-04-09 21:00:00 7.6 9 Oeste 22 Noroeste 0 -- -- 76
2019-04-09 20:00:00 8.6 10 Noroeste 28 Noroeste 0 -- -- 69
2019-04-09 19:00:00 8.7 13 Oeste 33 Oeste 0 -- -- 76
2019-04-09 18:00:00 9.6 18 Oeste 34 Oeste 0 -- -- 66
2019-04-09 17:00:00 11.5 11 Oeste 34 Oeste 0 -- -- 50
2019-04-09 16:00:00 11 18 Oeste 37 Noroeste 0 -- -- 52
2019-04-09 15:00:00 9.5 12 Oeste 33 Noroeste 0 -- -- 63
2019-04-09 14:00:00 8 7 Oeste 32 Oeste 0 -- -- 82
2019-04-09 13:00:00 8.1 14 Oeste 28 Oeste 0.2 -- -- 74
2019-04-09 12:00:00 6.7 10 Oeste 21 Oeste 0 -- -- 85
2019-04-09 11:00:00 4 6 Noroeste 30 Oeste 2.4 -- -- 93
2019-04-09 10:00:00 4.6 11 Sudoeste 26 Sudoeste 0.6 -- -- 93
2019-04-09 09:00:00 5 6 Sudoeste 24 Sudoeste 0 -- -- 97
2019-04-09 08:00:00 4.6 8 Sudoeste 27 Sudoeste 0.2 -- -- 97
2019-04-09 07:00:00 4.6 11 Sur 24 Sudoeste 0 -- -- 98
2019-04-09 06:00:00 5 6 Sudoeste 21 Sudoeste 0.4 -- -- 98
2019-04-09 05:00:00 4.9 9 Sudoeste 24 Sur 0.2 -- -- 98
2019-04-09 04:00:00 4.9 15 Sudoeste 29 Sur 0 -- -- 98
2019-04-09 03:00:00 4.9 10 Sur 24 Sudoeste 0 -- -- 97
2019-04-09 02:00:00 4.6 10 Sur 28 Sudoeste 0 -- -- 95
2019-04-09 01:00:00 2.1 0 Calma 6 Nordeste 0 -- -- 97
2019-04-09 00:00:00 3.1 0 Calma 6 Sudoeste 0 -- -- 92
2019-04-08 23:00:00 4.9 3 Sudeste 11 Noroeste 0 -- -- 85
2019-04-08 22:00:00 5.5 0 Calma 11 Oeste 0 -- -- 88
2019-04-08 21:00:00 6.9 3 Sudoeste 16 Sudoeste 0 -- -- 88
2019-04-08 20:00:00 7.8 9 Sudoeste 23 Sudoeste 0 -- -- 85
2019-04-08 19:00:00 8.9 8 Sudoeste 21 Oeste 0 -- -- 85
2019-04-08 18:00:00 9.5 9 Sudoeste 19 Oeste 1 -- -- 80
2019-04-08 17:00:00 9.7 10 Sudoeste 24 Sudoeste 0 -- -- 70
2019-04-08 16:00:00 11.3 15 Sudoeste 36 Sudoeste 0 -- -- 70
2019-04-08 15:00:00 11.8 14 Sudoeste 30 Sur 0 -- -- 57
2019-04-08 14:00:00 10.7 12 Sur 25 Sur 0 -- -- 65
2019-04-08 13:00:00 9 10 Sudoeste 20 Sur 0 -- -- 81
2019-04-08 12:00:00 8.9 9 Oeste 21 Noroeste 0 -- -- 69
2019-04-08 11:00:00 8 7 Noroeste 18 Noroeste 0 -- -- 75
2019-04-08 10:00:00 6.4 6 Noroeste 17 Norte 0 -- -- 89
2019-04-08 09:00:00 3.1 2 Sur 4 Sur 0 -- -- 99
2019-04-08 08:00:00 4 0 Calma 4 Sur 0 -- -- 96
2019-04-08 07:00:00 5.8 3 Sur 15 Oeste 0 -- -- 93
2019-04-08 06:00:00 7.6 5 Oeste 21 Oeste 0 -- -- 93
2019-04-08 05:00:00 8 5 Sudoeste 23 Sur 0 -- -- 94
2019-04-08 04:00:00 8.4 8 Sudoeste 38 Sur 2.8 -- -- 97
2019-04-08 03:00:00 8.6 21 Sur 44 Sudoeste 2 -- -- 98
2019-04-08 02:00:00 8.1 21 Sur 39 Sudoeste 0.2 -- -- 94
2019-04-08 01:00:00 8.3 19 Sur 41 Sur 0 -- -- 95
2019-04-08 00:00:00 8.3 14 Sudoeste 39 Sudoeste 0 -- -- 94
2019-04-07 23:00:00 8.1 9 Sudoeste 23 Sudoeste 0 -- -- 94
2019-04-07 22:00:00 8.2 10 Sudoeste 24 Sudoeste 0 -- -- 95
2019-04-07 21:00:00 8 8 Sur 15 Sudoeste 0.6 -- -- 98
2019-04-07 20:00:00 8.1 9 Sur 21 Sur 0.4 -- -- 96
2019-04-07 19:00:00 8.3 15 Sur 27 Sur 0 -- -- 96
2019-04-07 18:00:00 8.4 17 Sur 32 Sur 0.4 -- -- 96
2019-04-07 17:00:00 8.3 19 Sur 35 Sur 0 -- -- 94
2019-04-07 16:00:00 8 14 Sur 28 Sudoeste 0 -- -- 95
2019-04-07 15:00:00 7.1 9 Sur 27 Sudoeste 0 -- -- 91
2019-04-07 14:00:00 7.6 12 Sur 28 Sur 0 -- -- 86
2019-04-07 13:00:00 7 8 Sudoeste 20 Sudoeste 0 -- -- 87
2019-04-07 12:00:00 6.1 9 Sudoeste 14 Sudoeste 0 -- -- 88
2019-04-07 11:00:00 5.8 3 Sudoeste 8 Sur 0 -- -- 90
2019-04-07 10:00:00 4.7 0 Calma 5 Oeste 0 -- -- 90
2019-04-07 09:00:00 3.7 0 Calma 5 Oeste 0 -- -- 97
2019-04-07 08:00:00 3.1 3 Sur 6 Sudoeste 0.2 -- -- 97
2019-04-07 07:00:00 3 0 Calma 8 Sudoeste 0.2 -- -- 97
2019-04-07 06:00:00 3.1 3 Sudoeste 8 Sudoeste 0 -- -- 96
2019-04-07 05:00:00 2.8 4 Sudoeste 10 Sudoeste 0.2 -- -- 96
2019-04-07 04:00:00 3.1 0 Calma 7 Noroeste 0.2 -- -- 96
2019-04-07 03:00:00 2.9 2 Oeste 9 Sudoeste 0 -- -- 93
2019-04-07 02:00:00 2.7 2 Sudoeste 9 Sudoeste 0 -- -- 95
2019-04-07 01:00:00 3.1 2 Sudoeste 14 Oeste 0 -- -- 93
2019-04-07 00:00:00 3.4 3 Oeste 16 Sudoeste 0 -- -- 92
2019-04-06 23:00:00 3.5 4 Sudoeste 14 Oeste 0 -- -- 91
2019-04-06 22:00:00 3.3 2 Sur 9 Oeste 0 -- -- 91
2019-04-06 21:00:00 3.5 3 Noroeste 27 Noroeste 0 -- -- 86
2019-04-06 20:00:00 5.5 4 Oeste 31 Noroeste 0 -- -- 79
2019-04-06 19:00:00 6.1 17 Oeste 32 Oeste 0 -- -- 77
2019-04-06 18:00:00 5.8 14 Oeste 36 Sudoeste 0.2 -- -- 85
2019-04-06 17:00:00 3.3 12 Oeste 31 Noroeste 1.4 -- -- 90
2019-04-06 16:00:00 6.7 11 Sudoeste 36 Noroeste 0 -- -- 81
2019-04-06 15:00:00 5.1 17 Oeste 31 Oeste 0.4 -- -- 84
2019-04-06 14:00:00 3.9 22 Oeste 42 Oeste 0.2 -- -- 88
2019-04-06 13:00:00 4.4 16 Sudoeste 31 Sudoeste 0.2 -- -- 93
2019-04-06 12:00:00 4.1 9 Sudoeste 28 Sur 0 -- -- 90
2019-04-06 11:00:00 2.8 9 Sudoeste 25 Sudoeste 0 -- -- 96
2019-04-06 10:00:00 2.5 8 Sudoeste 21 Sudoeste 0.2 -- -- 96
2019-04-06 09:00:00 1.9 8 Sudoeste 19 Sudoeste 0.2 -- -- 98
2019-04-06 08:00:00 1.5 3 Sudoeste 25 Sur 1 -- -- 96
2019-04-06 07:00:00 2.2 11 Sudoeste 23 Sudoeste 0.2 -- -- 99
2019-04-06 06:00:00 2.1 9 Sudoeste 22 Sudoeste 0 -- -- 97
2019-04-06 05:00:00 2.3 6 Sudoeste 18 Sur 0 -- -- 99
2019-04-06 04:00:00 1.8 6 Sudoeste 14 Sudoeste 0 -- -- 99
2019-04-06 03:00:00 1 3 Sur 8 Sudoeste 0 -- -- 100
2019-04-06 02:00:00 -0.5 2 Sur 5 Sur 0 -- -- 98
2019-04-06 01:00:00 1 2 Sur 12 Oeste 0 -- -- 96
2019-04-06 00:00:00 0.2 2 Sudoeste 6 Sudoeste 0 -- -- 99
2019-04-05 23:00:00 0.1 0 Calma 5 Oeste 0 -- -- 96
2019-04-05 22:00:00 1.7 3 Oeste 13 Oeste 0 -- -- 94
2019-04-05 21:00:00 2 3 Sudoeste 33 Oeste 0.8 -- -- 94
2019-04-05 20:00:00 4.3 9 Oeste 31 Oeste 0.2 -- -- 89
2019-04-05 19:00:00 5.9 8 Sudoeste 26 Sudoeste 0 -- -- 84
2019-04-05 18:00:00 5.4 10 Sudoeste 23 Sudoeste 0.6 -- -- 85
2019-04-05 17:00:00 5.5 12 Sudoeste 34 Sudoeste 0 -- -- 82
2019-04-05 16:00:00 7 9 Sudoeste 30 Sur 0 -- -- 72
2019-04-05 15:00:00 6.2 9 Sudoeste 31 Oeste 0 -- -- 68
2019-04-05 14:00:00 4.8 9 Oeste 22 Oeste 0 -- -- 80
2019-04-05 13:00:00 4.2 9 Sudoeste 18 Sudoeste 0 -- -- 83
2019-04-05 12:00:00 3.8 6 Sudoeste 20 Noroeste 0 -- -- 86
2019-04-05 11:00:00 2.7 4 Sur 15 Sur 0.2 -- -- 93
2019-04-05 10:00:00 2.5 6 Sudoeste 17 Sur 0 -- -- 94
2019-04-05 09:00:00 2.3 2 Sudeste 4 Sudeste 0 -- -- 98
2019-04-05 08:00:00 2 3 Sur 5 Sudoeste 0 -- -- 99
2019-04-05 07:00:00 2.1 2 Norte 5 Oeste 0 -- -- 97
2019-04-05 06:00:00 3.3 3 Oeste 14 Sudoeste 0.2 -- -- 94
2019-04-05 05:00:00 4 4 Sudoeste 29 Sur 1.8 -- -- 96
2019-04-05 04:00:00 4.2 12 Sudoeste 36 Sudoeste 1 -- -- 98
2019-04-05 03:00:00 4.2 14 Sur 31 Sudoeste 1.2 -- -- 98
2019-04-05 02:00:00 3.9 13 Sur 28 Sur 0.8 -- -- 98
2019-04-05 01:00:00 3.2 16 Sur 32 Sur 2.2 -- -- 97
2019-04-05 00:00:00 3.3 19 Sudoeste 31 Sur 0.4 -- -- 96
2019-04-04 23:00:00 3.3 8 Sur 28 Sudoeste 0.2 -- -- 95
2019-04-04 22:00:00 3.2 17 Sudoeste 30 Sudoeste 0.8 -- -- 94
2019-04-04 21:00:00 3.7 7 Sudoeste 21 Sudoeste 0.8 -- -- 90
2019-04-04 20:00:00 5.1 6 Oeste 22 Sudoeste 0.6 -- -- 82
2019-04-04 19:00:00 8 9 Sudoeste 30 Sur 0 -- -- 62
2019-04-04 18:00:00 9.7 10 Sudoeste 30 Sudoeste 0 -- -- 46
2019-04-04 17:00:00 10.2 9 Sudoeste 31 Sudoeste 0 -- -- 39
2019-04-04 16:00:00 11.1 13 Sur 31 Sudoeste 0 -- -- 41
2019-04-04 15:00:00 10.8 8 Sudoeste 23 Oeste 0 -- -- 43
2019-04-04 14:00:00 9.2 5 Sudeste 17 Noroeste 0 -- -- 40
2019-04-04 13:00:00 7.4 6 Norte 16 Norte 0 -- -- 47
2019-04-04 12:00:00 5.8 4 Nordeste 13 Norte 0 -- -- 53
2019-04-04 11:00:00 3.4 4 Norte 12 Norte 0 -- -- 71
2019-04-04 10:00:00 0.3 3 Sudeste 6 Sudeste 0 -- -- 85
2019-04-04 09:00:00 -4.2 0 Calma 3 Sudoeste 0 -- -- 96
2019-04-04 08:00:00 -3.9 2 Sur 3 Sur 0 -- -- 88
2019-04-04 07:00:00 -1.3 0 Calma 8 Norte 0 -- -- 87
2019-04-04 06:00:00 -0.5 3 Norte 16 Noroeste 0 -- -- 86
2019-04-04 05:00:00 -0.2 5 Norte 13 Norte 0 -- -- 82
2019-04-04 04:00:00 0.4 5 Norte 15 Noroeste 0 -- -- 77
2019-04-04 03:00:00 1.2 6 Norte 18 Nordeste 0 -- -- 71
2019-04-04 02:00:00 1.9 6 Norte 26 Norte 0 -- -- 68
2019-04-04 01:00:00 2.9 13 Norte 30 Norte 0 -- -- 62
2019-04-04 00:00:00 3.8 13 Norte 27 Norte 0 -- -- 58
2019-04-03 23:00:00 5.1 14 Norte 33 Norte 0 -- -- 57
2019-04-03 22:00:00 6.2 8 Norte 21 Norte 0 -- -- 52
2019-04-03 21:00:00 6.9 12 Norte 29 Norte 0 -- -- 53
2019-04-03 20:00:00 9.4 12 Norte 32 Noroeste 0 -- -- 45
2019-04-03 19:00:00 9.9 17 Norte 37 Norte 0 -- -- 41
2019-04-03 18:00:00 10 15 Norte 34 Norte 0 -- -- 44
2019-04-03 17:00:00 10.2 17 Norte 46 Norte 0 -- -- 42
2019-04-03 16:00:00 9.9 17 Norte 43 Norte 0 -- -- 47
2019-04-03 15:00:00 9.2 18 Norte 39 Norte 0 -- -- 51
2019-04-03 14:00:00 8.3 19 Norte 39 Noroeste 0 -- -- 56
2019-04-03 13:00:00 7.5 19 Norte 39 Norte 0 -- -- 56
2019-04-03 12:00:00 6.5 17 Norte 33 Norte 0 -- -- 65
2019-04-03 11:00:00 5.4 10 Norte 25 Norte 0 -- -- 73
2019-04-03 10:00:00 4.5 7 Norte 22 Norte 0 -- -- 87
2019-04-03 09:00:00 4.5 4 Norte 16 Norte 0 -- -- 94
2019-04-03 08:00:00 4.3 4 Noroeste 10 Noroeste 0 -- -- 94
2019-04-03 07:00:00 3 0 Calma 6 Nordeste 0 -- -- 98
2019-04-03 06:00:00 2.1 0 Calma 6 Sudoeste 0 -- -- 99
2019-04-03 05:00:00 -0.6 2 Sur 5 Sur 0 -- -- 97
2019-04-03 04:00:00 -0.8 2 Sur 4 Sudoeste 0 -- -- 94
2019-04-03 03:00:00 -0.1 3 Sur 4 Sudoeste 0 -- -- 91
2019-04-03 02:00:00 1.4 2 Sur 4 Sur 0 -- -- 88
2019-04-03 01:00:00 3 0 Calma 4 Sudoeste 0 -- -- 86
2019-04-03 00:00:00 5.7 0 Calma 7 Oeste 0 -- -- 80
2019-04-02 23:00:00 8.9 0 Calma 10 Oeste 0 -- -- 71
2019-04-02 22:00:00 9.3 2 Oeste 10 Oeste 0 -- -- 63
2019-04-02 21:00:00 12.3 4 Noroeste 19 Noroeste 0 -- -- 50
2019-04-02 20:00:00 14.8 9 Noroeste 19 Oeste 0 -- -- 46
2019-04-02 19:00:00 14.9 4 Sudoeste 24 Oeste 0 -- -- 48
2019-04-02 18:00:00 16 9 Noroeste 24 Oeste 0 -- -- 40
2019-04-02 17:00:00 16.1 9 Oeste 22 Noroeste 0 -- -- 40
2019-04-02 16:00:00 15.1 9 Noroeste 26 Oeste 0 -- -- 44
2019-04-02 15:00:00 14.7 13 Noroeste 23 Oeste 0 -- -- 46
2019-04-02 14:00:00 14.5 10 Noroeste 18 Noroeste 0 -- -- 46
2019-04-02 13:00:00 13.3 7 Noroeste 21 Noroeste 0 -- -- 55
2019-04-02 12:00:00 12.2 5 Norte 12 Norte 0 -- -- 67
2019-04-02 11:00:00 9.6 0 Calma 5 Nordeste 0 -- -- 78
2019-04-02 10:00:00 5.4 0 Calma 2 Sudeste 0 -- -- 100
2019-04-02 09:00:00 1.4 0 Calma 3 Sur 0 -- -- 98
2019-04-02 08:00:00 1.1 3 Sur 4 Sur 0 -- -- 94
2019-04-02 07:00:00 2.6 2 Sur 4 Sur 0 -- -- 94
2019-04-02 06:00:00 5 2 Sudoeste 3 Sudoeste 0 -- -- 90
2019-04-02 05:00:00 5.9 0 Calma 3 Sudoeste 0 -- -- 94
2019-04-02 04:00:00 5.2 0 Calma 5 Sur 0 -- -- 95
2019-04-02 03:00:00 3.9 2 Sur 6 Sur 0 -- -- 94
2019-04-02 02:00:00 4.7 2 Sur 5 Sudoeste 0 -- -- 90
2019-04-02 01:00:00 7.2 2 Sur 3 Sur 0 -- -- 87
2019-04-02 00:00:00 8 0 Calma 3 Sur 0 -- -- 85
2019-04-01 23:00:00 8.9 0 Calma 3 Sur 0 -- -- 81
2019-04-01 22:00:00 9.2 0 Calma 3 Sudeste 0 -- -- 80
2019-04-01 21:00:00 10.2 2 Sudeste 10 Noroeste 0 -- -- 72
2019-04-01 20:00:00 11.7 8 Noroeste 14 Noroeste 0 -- -- 67
2019-04-01 19:00:00 11.3 2 Sudoeste 6 Sudoeste 0 -- -- 68
2019-04-01 18:00:00 10.6 2 Noroeste 13 Norte 0 -- -- 71
2019-04-01 17:00:00 11.1 6 Norte 23 Sur 0 -- -- 66
2019-04-01 16:00:00 14.2 16 Sur 28 Sudoeste 0 -- -- 64
2019-04-01 15:00:00 13.3 14 Sur 24 Sudoeste 0 -- -- 65
2019-04-01 14:00:00 13.1 10 Sur 20 Sur 0 -- -- 64
2019-04-01 13:00:00 12 5 Sudoeste 14 Sur 0 -- -- 74
2019-04-01 12:00:00 11.4 4 Sudeste 12 Sur 0 -- -- 69
2019-04-01 11:00:00 10.6 9 Sur 14 Sur 0 -- -- 73
2019-04-01 10:00:00 7.8 0 Calma 3 Norte 0 -- -- 90
2019-04-01 09:00:00 4 0 Calma 2 Sur 0 -- -- 95
2019-04-01 08:00:00 3.2 0 Calma 5 Sudoeste 0 -- -- 92
2019-04-01 07:00:00 4.9 3 Sur 14 Sudeste 0 -- -- 85
2019-04-01 06:00:00 7.2 3 Sudoeste 18 Sudeste 0 -- -- 84
2019-04-01 05:00:00 8.3 9 Sudeste 18 Sudeste 0 -- -- 79
2019-04-01 04:00:00 7.7 3 Sur 22 Sudeste 0 -- -- 77
2019-04-01 03:00:00 8.8 10 Sudeste 29 Sudeste 0 -- -- 76
2019-04-01 02:00:00 8.9 5 Sudeste 17 Este 0 -- -- 77
2019-04-01 01:00:00 8.3 2 Sudoeste 21 Sudeste 0 -- -- 80
2019-04-01 00:00:00 9.6 10 Sudeste 23 Sudeste 0 -- -- 76
2019-03-31 23:00:00 6.5 2 Sudoeste 7 Sudoeste 0 -- -- 83
2019-03-31 22:00:00 7.8 4 Sudoeste 6 Sudoeste 0 -- -- 77
2019-03-31 21:00:00 10.2 3 Sur 9 Sudeste 0 -- -- 71
2019-03-31 20:00:00 14 3 Este 10 Sudeste 0 -- -- 50
2019-03-31 19:00:00 14.2 3 Nordeste 15 Sudeste 0 -- -- 48
2019-03-31 18:00:00 13.6 4 Nordeste 18 Este 0 -- -- 53
2019-03-31 17:00:00 14.5 9 Este 25 Sudeste 0 -- -- 49
2019-03-31 16:00:00 14.8 5 Sudoeste 12 Sudoeste 0 -- -- 52
2019-03-31 15:00:00 10.3 5 Sur 20 Oeste 2.6 -- -- 78
2019-03-31 14:00:00 14 6 Sudoeste 19 Oeste 0 -- -- 54
2019-03-31 13:00:00 14.9 5 Noroeste 12 Norte 0 -- -- 49
2019-03-31 12:00:00 13.6 0 Calma 4 Noroeste 0 -- -- 47
2019-03-31 11:00:00 9.1 0 Calma 2 Norte 0 -- -- 75
2019-03-31 10:00:00 5.4 0 Calma 3 Sudoeste 0 -- -- 82
2019-03-31 09:00:00 2 2 Sudoeste -- -- 0 -- -- 90
2019-03-31 08:00:00 0.2 2 Sur 5 Sur 0 -- -- 89
2019-03-31 07:00:00 0.5 0 Calma 5 Sudoeste 0 -- -- 87
2019-03-31 06:00:00 0.8 3 Sudoeste 4 Sudoeste 0 -- -- 88
2019-03-31 05:00:00 1.6 2 Sur 4 Sur 0 -- -- 82
2019-03-31 03:00:00 4 0 Calma 4 Sudoeste 0 -- -- 80
2019-03-31 01:00:00 3.2 3 Sur 4 Sur 0 -- -- 77
2019-03-31 00:00:00 3.5 2 Sudoeste 4 Sur 0 -- -- 75
2019-03-30 23:00:00 2.8 3 Sudoeste 6 Sudoeste 0 -- -- 74
2019-03-30 22:00:00 4.8 4 Sur 7 Sur 0 -- -- 67
2019-03-30 21:00:00 8.4 3 Sur 4 Sur 0 -- -- 56
2019-03-30 20:00:00 13.2 0 Calma 9 Sur 0 -- -- 42
2019-03-30 19:00:00 14.9 6 Sur 17 Sudoeste 0 -- -- 37
2019-03-30 18:00:00 16.9 6 Sur 23 Sudoeste 0 -- -- 32
2019-03-30 17:00:00 17.2 6 Sudoeste 17 Sudeste 0 -- -- 30
2019-03-30 16:00:00 17 5 Este 20 Sur 0 -- -- 30
2019-03-30 15:00:00 17 6 Sudeste 17 Este 0 -- -- 28
2019-03-30 14:00:00 16.2 8 Este 21 Sudeste 0 -- -- 25
2019-03-30 13:00:00 15.7 5 Este 17 Sur 0 -- -- 33
2019-03-30 12:00:00 15.1 8 Sur 18 Sur 0 -- -- 38
2019-03-30 11:00:00 14.1 8 Sur 17 Sudoeste 0 -- -- 39
2019-03-30 10:00:00 12.4 8 Sudeste 17 Este 0 -- -- 41
2019-03-30 09:00:00 9.5 9 Sudeste 17 Sudeste 0 -- -- 50
2019-03-30 08:00:00 6 7 Sudeste 18 Este 0 -- -- 63
2019-03-30 07:00:00 -0.7 3 Sudoeste 13 Sur 0 -- -- 84
2019-03-30 06:00:00 -0.8 3 Sudoeste 6 Sur 0 -- -- 85
2019-03-30 05:00:00 -0.2 3 Sur 5 Sur 0 -- -- 82
2019-03-30 04:00:00 -0.2 3 Sur 5 Sudoeste 0 -- -- 81
2019-03-30 03:00:00 -0.3 3 Sur 5 Sur 0 -- -- 79
2019-03-30 02:00:00 0.1 2 Sur 6 Sudoeste 0 -- -- 77
2019-03-30 01:00:00 -0.2 2 Sur 6 Sudoeste 0 -- -- 80
2019-03-30 00:00:00 0.6 3 Sur 5 Sur 0 -- -- 74
2019-03-29 23:00:00 1.7 3 Sur 5 Sudoeste 0 -- -- 71
2019-03-29 22:00:00 2.9 3 Sur 5 Sur 0 -- -- 66
2019-03-29 21:00:00 5.9 3 Sur 7 Sur 0 -- -- 57
2019-03-29 20:00:00 10.9 0 Calma 18 Sudeste 0 -- -- 43
2019-03-29 19:00:00 14 10 Sudeste 21 Sudeste 0 -- -- 32
2019-03-29 18:00:00 14.9 10 Sudeste 23 Sudeste 0 -- -- 30
2019-03-29 17:00:00 15.5 10 Sudeste 28 Sudeste 0 -- -- 30
2019-03-29 16:00:00 15.5 10 Sudeste 28 Sudeste 0 -- -- 30
2019-03-29 15:00:00 15.1 13 Sudeste 36 Sudeste 0 -- -- 31
2019-03-29 14:00:00 14.2 14 Sudeste 36 Sudeste 0 -- -- 32
2019-03-29 13:00:00 14.4 10 Sudeste 27 Sudoeste 0 -- -- 33
2019-03-29 12:00:00 13.1 13 Sur 39 Sudeste 0 -- -- 35
2019-03-29 11:00:00 10.8 19 Este 37 Sudeste 0 -- -- 36
2019-03-29 10:00:00 9.4 18 Sudeste 36 Sudeste 0 -- -- 38
2019-03-29 09:00:00 8.7 15 Sudeste 31 Sudeste 0 -- -- 38
2019-03-29 08:00:00 7.7 9 Sudeste 20 Sudeste 0 -- -- 39
2019-03-29 07:00:00 -0.8 0 Calma 4 Sur 0 -- -- 77
2019-03-29 06:00:00 -1.6 3 Sudoeste 5 Sur 0 -- -- 79
2019-03-29 05:00:00 -1.4 3 Sur 5 Sur 0 -- -- 79
2019-03-29 04:00:00 -0.9 3 Sudoeste 4 Sur 0 -- -- 78
2019-03-29 03:00:00 -0.8 3 Sur 5 Sudoeste 0 -- -- 78
2019-03-29 02:00:00 -0.1 3 Sur 5 Sur 0 -- -- 76
2019-03-29 01:00:00 0.3 3 Sudoeste 5 Sudoeste 0 -- -- 76
2019-03-29 00:00:00 0.9 3 Sur 5 Sur 0 -- -- 74
2019-03-28 23:00:00 2.5 3 Sudoeste 5 Sur 0 -- -- 71
2019-03-28 22:00:00 3.7 3 Sur 5 Sur 0 -- -- 68
2019-03-28 21:00:00 6.5 4 Sur 8 Sur 0 -- -- 62
2019-03-28 20:00:00 11.8 3 Sudoeste 9 Sur 0 -- -- 48
2019-03-28 19:00:00 16.6 3 Sudoeste 12 Este 0 -- -- 32
2019-03-28 18:00:00 17.2 4 Oeste 14 Nordeste 0 -- -- 29
2019-03-28 17:00:00 17.5 6 Norte 13 Sudeste 0 -- -- 28
2019-03-28 16:00:00 17.3 5 Norte 20 Noroeste 0 -- -- 28
2019-03-28 15:00:00 16.5 5 Oeste 14 Sudeste 0 -- -- 31
2019-03-28 14:00:00 15.6 9 Sudeste 18 Sudeste 0 -- -- 26
2019-03-28 13:00:00 15.9 5 Sur 19 Sudeste 0 -- -- 27
2019-03-28 12:00:00 14.8 4 Este 25 Sudeste 0 -- -- 26
2019-03-28 11:00:00 12.7 5 Este 13 Sudeste 0 -- -- 36
2019-03-28 10:00:00 7.4 0 Calma 3 Sur 0 -- -- 49
2019-03-28 09:00:00 0.6 0 Calma 4 Sur 0 -- -- 83
2019-03-28 08:00:00 -3.8 0 Calma 3 Sur 0 -- -- 89
2019-03-28 07:00:00 -3.7 0 Calma 3 Sur 0 -- -- 86
2019-03-28 06:00:00 -3.3 0 Calma 4 Sur 0 -- -- 85
2019-03-28 05:00:00 -2.7 2 Sur 4 Sur 0 -- -- 84
2019-03-28 04:00:00 -2.5 2 Sudoeste 4 Sudoeste 0 -- -- 84
2019-03-28 03:00:00 -2 2 Sur 3 Sur 0 -- -- 84
2019-03-28 02:00:00 -1.3 0 Calma 4 Sur 0 -- -- 83
2019-03-28 01:00:00 -0.6 2 Sur 4 Sur 0 -- -- 79
2019-03-28 00:00:00 0.1 3 Sur 5 Sudoeste 0 -- -- 78
2019-03-27 23:00:00 1.2 3 Sur 5 Sur 0 -- -- 72
2019-03-27 22:00:00 2.7 3 Sur 6 Sur 0 -- -- 65
2019-03-27 21:00:00 5.9 2 Sur 6 Sur 0 -- -- 54
2019-03-27 20:00:00 12.8 0 Calma 18 Norte 0 -- -- 33
2019-03-27 19:00:00 16 9 Norte 23 Norte 0 -- -- 28
2019-03-27 18:00:00 16.6 9 Norte 28 Norte 0 -- -- 30
2019-03-27 17:00:00 16.5 12 Norte 24 Norte 0 -- -- 29
2019-03-27 16:00:00 16.3 10 Norte 20 Noroeste 0 -- -- 31
2019-03-27 15:00:00 16.2 7 Nordeste 19 Norte 0 -- -- 28
2019-03-27 14:00:00 15.1 7 Norte 16 Norte 0 -- -- 35
2019-03-27 13:00:00 14.2 8 Norte 16 Norte 0 -- -- 39
2019-03-27 12:00:00 13.2 5 Noroeste 11 Norte 0 -- -- 36
2019-03-27 11:00:00 10.4 3 Norte 9 Norte 0 -- -- 43
2019-03-27 10:00:00 5.8 3 Nordeste 6 Nordeste 0 -- -- 51
2019-03-27 09:00:00 -0.6 0 Calma 3 Sur 0 -- -- 77
2019-03-27 08:00:00 -4.7 0 Calma 4 Sur 0 -- -- 85
2019-03-27 07:00:00 -4.7 2 Sur 4 Sur 0 -- -- 83
2019-03-27 06:00:00 -4 0 Calma 4 Sur 0 -- -- 85
2019-03-27 05:00:00 -3.4 2 Sur 4 Sur 0 -- -- 83
2019-03-27 04:00:00 -2.5 2 Sur 4 Sur 0 -- -- 82
2019-03-27 03:00:00 -1.8 0 Calma 4 Sudoeste 0 -- -- 79
2019-03-27 02:00:00 -0.8 2 Sur 5 Sur 0 -- -- 77
2019-03-27 01:00:00 0.1 0 Calma 4 Sur 0 -- -- 77
2019-03-27 00:00:00 1.5 2 Sur 6 Sur 0 -- -- 74